Time;durP1;ratioP1;P1;durP2;ratioP2;P2;SDS_P1;SDS_P2;PMS_P1;PMS_P2;Temp;Humidity;BMP_temperature;BMP_pressure;BME280_temperature;BME280_humidity;BME280_pressure;Samples;Min_cycle;Max_cycle;Signal;HPM_P1;HPM_P2
2022/04/08 00:00:41;;;;;;;2.50;1.87;;;9.90;99.90;;;;;;5052245;28;20523;-44
2022/04/08 00:03:08;;;;;;;2.90;2.53;;;9.80;99.90;;;;;;5052295;28;20536;-43
2022/04/08 00:05:35;;;;;;;4.97;2.83;;;9.70;99.90;;;;;;5052473;28;20514;-42
2022/04/08 00:08:04;;;;;;;4.00;3.03;;;9.20;99.90;;;;;;5052413;28;20488;-42
2022/04/08 00:10:30;;;;;;;2.77;2.57;;;8.60;99.90;;;;;;5052119;28;20567;-42
2022/04/08 00:12:58;;;;;;;2.43;2.23;;;8.90;99.90;;;;;;5052076;28;20687;-42
2022/04/08 00:15:25;;;;;;;3.57;2.87;;;8.80;99.90;;;;;;5051620;28;20440;-42
2022/04/08 00:17:52;;;;;;;4.03;2.10;;;8.40;99.90;;;;;;5052072;28;20452;-43
2022/04/08 00:20:19;;;;;;;3.10;2.07;;;8.40;99.90;;;;;;5051591;28;20450;-42
2022/04/08 00:22:46;;;;;;;4.63;2.20;;;8.70;99.90;;;;;;5051842;28;20536;-42
2022/04/08 00:25:14;;;;;;;5.47;2.40;;;8.80;99.90;;;;;;5051285;28;20947;-43
2022/04/08 00:27:43;;;;;;;2.40;2.20;;;9.00;99.90;;;;;;5051660;28;20559;-43
2022/04/08 00:30:11;;;;;;;3.33;2.60;;;9.20;99.90;;;;;;5051685;28;20484;-43
2022/04/08 00:32:38;;;;;;;3.40;2.33;;;9.40;99.90;;;;;;5051781;28;20524;-45
2022/04/08 00:35:05;;;;;;;3.20;2.50;;;9.30;99.90;;;;;;5051847;28;20524;-42
2022/04/08 00:37:32;;;;;;;2.90;2.23;;;9.20;99.90;;;;;;5051637;28;20469;-43
2022/04/08 00:39:59;;;;;;;5.40;2.20;;;8.90;99.90;;;;;;5051668;28;20534;-44
2022/04/08 00:42:27;;;;;;;2.67;2.47;;;8.60;99.90;;;;;;5051588;28;20515;-43
2022/04/08 00:44:54;;;;;;;4.47;3.37;;;8.60;99.90;;;;;;5051595;28;20520;-42
2022/04/08 00:47:21;;;;;;;5.10;3.37;;;8.80;99.90;;;;;;5051565;28;20441;-42
2022/04/08 00:49:48;;;;;;;7.33;2.53;;;9.10;99.90;;;;;;5051295;28;20473;-46
2022/04/08 00:52:16;;;;;;;2.60;2.03;;;9.30;99.90;;;;;;5051205;28;20470;-43
2022/04/08 00:54:45;;;;;;;2.10;1.60;;;9.40;99.90;;;;;;5051735;28;20437;-43
2022/04/08 00:57:13;;;;;;;2.33;2.13;;;9.50;99.90;;;;;;5051503;28;20469;-42
2022/04/08 00:59:41;;;;;;;2.00;1.70;;;9.60;99.90;;;;;;5051056;28;20532;-42
2022/04/08 01:02:08;;;;;;;2.37;2.17;;;9.10;99.90;;;;;;5051210;28;20503;-42
2022/04/08 01:04:35;;;;;;;2.30;2.10;;;9.00;99.90;;;;;;5051043;28;20445;-45
2022/04/08 01:07:03;;;;;;;1.97;1.83;;;9.10;99.90;;;;;;5051187;28;20477;-43
2022/04/08 01:09:31;;;;;;;2.17;1.80;;;9.10;99.90;;;;;;5050927;28;20469;-42
2022/04/08 01:11:58;;;;;;;1.63;1.50;;;8.60;99.90;;;;;;5051444;28;20496;-44
2022/04/08 01:14:25;;;;;;;3.20;1.80;;;8.30;99.90;;;;;;5051041;28;20445;-46
2022/04/08 01:16:53;;;;;;;2.17;2.00;;;8.30;99.90;;;;;;5050965;28;20442;-47
2022/04/08 01:19:20;;;;;;;2.50;2.10;;;8.40;99.90;;;;;;5051145;28;20489;-47
2022/04/08 01:21:47;;;;;;;3.13;2.80;;;8.60;99.90;;;;;;5051343;28;20895;-45
2022/04/08 01:24:15;;;;;;;3.10;2.80;;;8.80;99.90;;;;;;5051070;28;20476;-43
2022/04/08 01:26:43;;;;;;;2.63;2.17;;;9.00;99.90;;;;;;5050853;28;20545;-47
2022/04/08 01:29:10;;;;;;;2.50;2.17;;;9.00;99.90;;;;;;5050709;28;20476;-45
2022/04/08 01:31:43;;;;;;;2.40;2.20;;;9.20;99.90;;;;;;5051646;28;20504;-43
2022/04/08 01:34:10;;;;;;;3.00;2.57;;;8.80;99.90;;;;;;5051248;28;20453;-42
2022/04/08 01:36:37;;;;;;;2.60;2.40;;;8.80;99.90;;;;;;5051198;28;20461;-47
2022/04/08 01:39:04;;;;;;;3.97;2.60;;;8.70;99.90;;;;;;5050900;28;20437;-43
2022/04/08 01:41:31;;;;;;;3.80;3.10;;;8.80;99.90;;;;;;5051055;28;20459;-43
2022/04/08 01:44:00;;;;;;;3.43;3.00;;;8.70;99.90;;;;;;5051004;28;20441;-43
2022/04/08 01:46:27;;;;;;;3.20;2.90;;;8.20;99.90;;;;;;5054689;28;20865;-42
2022/04/08 01:48:54;;;;;;;2.67;2.37;;;7.90;99.90;;;;;;5054738;28;20802;-44
2022/04/08 01:51:22;;;;;;;3.03;2.70;;;7.80;99.90;;;;;;5054889;28;20511;-43
2022/04/08 01:53:49;;;;;;;2.53;2.33;;;7.90;99.90;;;;;;5054849;28;20479;-43
2022/04/08 01:56:16;;;;;;;2.60;2.40;;;8.10;99.90;;;;;;5054601;28;20469;-44
2022/04/08 01:58:43;;;;;;;2.83;2.60;;;8.30;99.90;;;;;;5054622;28;20442;-42
2022/04/08 02:01:11;;;;;;;2.47;2.20;;;8.60;99.90;;;;;;5054319;28;20507;-43
2022/04/08 02:03:38;;;;;;;2.80;2.00;;;8.60;99.90;;;;;;5054921;28;20445;-42
2022/04/08 02:06:05;;;;;;;2.20;1.60;;;8.60;99.90;;;;;;5054438;28;20445;-43
2022/04/08 02:08:32;;;;;;;2.10;2.00;;;8.60;99.90;;;;;;5054759;28;20496;-43
2022/04/08 02:10:59;;;;;;;2.63;2.43;;;8.70;99.90;;;;;;5054534;28;20485;-45
2022/04/08 02:13:26;;;;;;;3.43;2.23;;;8.50;99.90;;;;;;5054664;28;20523;-43
2022/04/08 02:15:53;;;;;;;3.20;2.77;;;8.50;99.90;;;;;;5054084;28;20533;-43
2022/04/08 02:18:21;;;;;;;3.13;2.57;;;8.20;99.90;;;;;;5054418;28;20533;-43
2022/04/08 02:20:50;;;;;;;2.50;1.80;;;8.10;99.90;;;;;;5053881;28;20461;-43
2022/04/08 02:23:18;;;;;;;2.63;2.43;;;8.40;99.90;;;;;;5054102;28;21032;-44
2022/04/08 02:25:46;;;;;;;2.67;2.47;;;8.30;99.90;;;;;;5054084;28;20469;-43
2022/04/08 02:28:13;;;;;;;2.57;2.37;;;8.60;99.90;;;;;;5054055;28;20976;-43
2022/04/08 02:30:40;;;;;;;2.80;2.60;;;8.70;99.90;;;;;;5053684;28;20515;-43
2022/04/08 02:33:07;;;;;;;2.20;1.73;;;8.90;99.90;;;;;;5054360;28;20480;-43
2022/04/08 02:35:35;;;;;;;2.70;2.30;;;8.90;99.90;;;;;;5053948;28;20475;-42
2022/04/08 02:38:02;;;;;;;2.13;1.80;;;9.00;99.90;;;;;;5054224;28;20484;-42
2022/04/08 02:40:29;;;;;;;2.77;1.80;;;9.10;99.90;;;;;;5053797;28;20458;-43
2022/04/08 02:42:56;;;;;;;2.40;2.20;;;8.60;99.90;;;;;;5054083;28;20473;-43
2022/04/08 02:45:23;;;;;;;4.40;1.67;;;8.30;99.90;;;;;;5053982;28;20448;-43
2022/04/08 02:47:50;;;;;;;2.70;1.90;;;8.00;99.90;;;;;;5053776;28;20445;-43
2022/04/08 02:50:17;;;;;;;2.53;2.33;;;8.00;99.90;;;;;;5053801;28;21035;-43
2022/04/08 02:52:45;;;;;;;3.57;2.20;;;8.30;99.90;;;;;;5053977;28;20465;-48
2022/04/08 02:55:12;;;;;;;2.00;1.70;;;8.50;99.90;;;;;;5053819;28;20487;-46
2022/04/08 02:57:44;;;;;;;2.30;1.97;;;8.60;99.90;;;;;;5053555;28;20934;-42
2022/04/08 03:00:16;;;;;;;3.53;2.30;;;8.60;99.90;;;;;;5053440;28;20453;-43
2022/04/08 03:02:43;;;;;;;2.60;2.40;;;8.00;99.90;;;;;;5053491;28;20511;-45
2022/04/08 03:05:10;;;;;;;2.27;2.10;;;7.90;99.90;;;;;;5053693;28;20533;-43
2022/04/08 03:07:37;;;;;;;5.23;2.03;;;7.70;99.90;;;;;;5053564;28;20524;-43
2022/04/08 03:10:07;;;;;;;2.00;1.73;;;7.80;99.90;;;;;;5053143;28;20530;-42
2022/04/08 03:12:34;;;;;;;1.90;1.30;;;7.80;99.90;;;;;;5053452;28;20484;-42
2022/04/08 03:15:02;;;;;;;2.60;1.60;;;8.10;99.90;;;;;;5053221;28;20448;-47
2022/04/08 03:17:29;;;;;;;3.13;1.50;;;8.40;99.90;;;;;;5053333;28;20632;-42
2022/04/08 03:19:57;;;;;;;1.83;1.50;;;8.50;99.90;;;;;;5053034;28;20503;-42
2022/04/08 03:22:25;;;;;;;1.47;1.37;;;8.60;99.90;;;;;;5053383;28;20465;-43
2022/04/08 03:24:52;;;;;;;1.53;1.43;;;8.70;99.90;;;;;;5052947;28;20456;-46
2022/04/08 03:27:21;;;;;;;2.70;1.67;;;8.80;99.90;;;;;;5052704;28;20483;-43
2022/04/08 03:29:49;;;;;;;4.67;3.03;;;8.80;99.90;;;;;;5052722;28;20528;-45
2022/04/08 03:32:16;;;;;;;3.53;2.63;;;8.90;99.90;;;;;;5052966;28;20476;-42
2022/04/08 03:34:43;;;;;;;3.07;2.60;;;9.00;99.90;;;;;;5053245;28;20483;-42
2022/04/08 03:37:11;;;;;;;2.03;1.83;;;9.00;99.90;;;;;;5053076;28;20527;-42
2022/04/08 03:39:37;;;;;;;1.57;1.30;;;9.00;99.90;;;;;;5052513;28;20949;-43
2022/04/08 03:42:06;;;;;;;3.17;1.70;;;8.50;99.90;;;;;;5052889;28;20515;-42
2022/04/08 03:44:34;;;;;;;2.47;2.27;;;8.70;99.90;;;;;;5052886;28;20813;-42
2022/04/08 03:47:01;;;;;;;3.00;2.17;;;8.70;99.90;;;;;;5052886;28;20441;-47
2022/04/08 03:49:31;;;;;;;4.43;2.57;;;8.00;99.90;;;;;;5052393;28;20878;-43
2022/04/08 03:51:58;;;;;;;3.97;2.67;;;7.90;99.90;;;;;;5052550;28;20483;-42
2022/04/08 03:54:25;;;;;;;2.40;2.20;;;7.60;99.90;;;;;;5052259;28;20441;-43
2022/04/08 03:56:52;;;;;;;4.30;2.50;;;7.40;99.90;;;;;;5052584;28;20931;-43
2022/04/08 03:59:21;;;;;;;2.87;2.30;;;7.20;99.90;;;;;;5052261;28;20441;-42
2022/04/08 04:01:50;;;;;;;1.33;1.23;;;7.20;99.90;;;;;;5052655;28;20863;-42
2022/04/08 04:04:17;;;;;;;1.57;1.47;;;7.00;99.90;;;;;;5052504;28;20445;-43
2022/04/08 04:06:44;;;;;;;4.20;3.27;;;7.10;99.90;;;;;;5052211;28;20449;-45
2022/04/08 04:09:11;;;;;;;4.60;2.73;;;7.30;99.90;;;;;;5052212;28;20445;-46
2022/04/08 04:11:38;;;;;;;2.60;2.40;;;7.00;99.90;;;;;;5052979;28;20485;-45
2022/04/08 04:14:06;;;;;;;2.20;1.93;;;6.90;99.90;;;;;;5052215;28;20817;-48
2022/04/08 04:16:33;;;;;;;2.43;2.03;;;7.00;99.90;;;;;;5052085;28;20457;-45
2022/04/08 04:19:02;;;;;;;2.10;1.83;;;7.20;99.90;;;;;;5052364;28;20445;-44
2022/04/08 04:21:30;;;;;;;2.40;2.20;;;7.50;99.90;;;;;;5052511;28;20501;-47
2022/04/08 04:23:57;;;;;;;2.47;1.97;;;7.80;99.90;;;;;;5052538;28;20445;-45
2022/04/08 04:26:24;;;;;;;2.47;2.07;;;7.90;99.90;;;;;;5051858;28;20441;-45
2022/04/08 04:28:51;;;;;;;2.00;1.53;;;8.00;99.90;;;;;;5052476;28;20507;-45
2022/04/08 04:31:18;;;;;;;3.00;2.07;;;8.20;99.90;;;;;;5051887;28;20516;-48
2022/04/08 04:33:45;;;;;;;4.20;2.97;;;8.10;99.90;;;;;;5052253;28;20525;-47
2022/04/08 04:36:14;;;;;;;5.63;5.13;;;8.10;99.90;;;;;;5052494;28;20867;-45
2022/04/08 04:38:41;;;;;;;5.27;4.87;;;8.10;99.90;;;;;;5052471;28;20840;-45
2022/04/08 04:41:07;;;;;;;7.40;6.93;;;8.10;99.90;;;;;;5051501;28;20573;-43
2022/04/08 04:43:34;;;;;;;5.40;5.00;;;7.90;99.90;;;;;;5051640;28;20879;-49
2022/04/08 04:46:03;;;;;;;3.20;2.90;;;8.10;99.90;;;;;;5051695;28;20437;-47
2022/04/08 04:48:30;;;;;;;2.83;2.63;;;8.30;99.90;;;;;;5051642;28;20488;-45
2022/04/08 04:50:57;;;;;;;6.57;3.40;;;8.30;99.90;;;;;;5051930;28;20560;-45
2022/04/08 04:53:26;;;;;;;5.10;4.60;;;7.90;99.90;;;;;;5051507;28;20989;-43
2022/04/08 04:55:54;;;;;;;3.87;3.57;;;7.30;99.90;;;;;;5051499;28;20477;-43
2022/04/08 04:58:21;;;;;;;4.43;2.80;;;7.10;99.90;;;;;;5051768;28;20445;-45
2022/04/08 05:00:48;;;;;;;3.23;2.93;;;7.40;99.90;;;;;;5051571;28;21002;-43
2022/04/08 05:03:15;;;;;;;2.50;2.20;;;7.40;99.90;;;;;;5051596;28;20445;-43
2022/04/08 05:05:42;;;;;;;2.60;2.40;;;7.10;99.90;;;;;;5051630;28;20441;-46
2022/04/08 05:08:09;;;;;;;2.57;2.37;;;7.20;99.90;;;;;;5051317;28;20437;-43
2022/04/08 05:10:37;;;;;;;3.00;2.70;;;7.50;99.90;;;;;;5051304;28;20560;-43
2022/04/08 05:13:04;;;;;;;2.70;2.43;;;7.90;99.90;;;;;;5051013;28;20445;-47
2022/04/08 05:15:32;;;;;;;3.20;2.83;;;8.10;99.90;;;;;;5051062;28;20479;-44
2022/04/08 05:18:00;;;;;;;3.00;2.60;;;8.20;99.90;;;;;;5051157;28;20475;-45
2022/04/08 05:20:27;;;;;;;2.50;2.27;;;8.10;99.90;;;;;;5050736;28;20468;-48
2022/04/08 05:22:54;;;;;;;3.70;2.60;;;8.20;99.90;;;;;;5051002;28;20487;-43
2022/04/08 05:25:21;;;;;;;4.00;3.43;;;8.40;99.90;;;;;;5050572;28;20445;-43
2022/04/08 05:27:51;;;;;;;7.80;4.23;;;8.60;99.90;;;;;;5050967;28;20441;-43
2022/04/08 05:30:18;;;;;;;4.83;4.37;;;8.40;99.90;;;;;;5050843;28;20628;-45
2022/04/08 05:32:46;;;;;;;5.27;4.50;;;8.50;99.90;;;;;;5051467;28;20448;-43
2022/04/08 05:35:14;;;;;;;5.50;4.20;;;8.60;99.90;;;;;;5051056;28;20449;-43
2022/04/08 05:37:42;;;;;;;3.53;3.23;;;8.80;99.90;;;;;;5050769;28;20544;-43
2022/04/08 05:40:11;;;;;;;4.27;3.07;;;8.70;99.90;;;;;;5050556;28;20509;-43
2022/04/08 05:42:39;;;;;;;3.57;3.10;;;8.90;99.90;;;;;;5051232;28;20441;-45
2022/04/08 05:45:09;;;;;;;2.90;2.60;;;9.00;99.90;;;;;;5051719;28;20453;-47
2022/04/08 05:47:36;;;;;;;2.63;2.43;;;9.20;99.90;;;;;;5050920;28;20445;-43
2022/04/08 05:50:04;;;;;;;4.57;2.83;;;9.30;99.90;;;;;;5050539;28;20473;-44
2022/04/08 05:52:31;;;;;;;2.30;2.10;;;9.40;99.90;;;;;;5050762;28;20892;-44
2022/04/08 05:54:58;;;;;;;3.87;2.90;;;9.50;99.90;;;;;;5050779;28;20499;-44
2022/04/08 05:57:26;;;;;;;4.67;3.77;;;9.60;99.90;;;;;;5050780;28;20441;-47
2022/04/08 06:00:00;;;;;;;6.37;4.53;;;9.70;99.90;;;;;;5050790;28;20480;-43
2022/04/08 06:02:28;;;;;;;7.77;5.80;;;9.80;99.90;;;;;;5050808;28;20581;-44
2022/04/08 06:04:55;;;;;;;6.30;4.77;;;9.80;99.90;;;;;;5050638;28;20502;-43
2022/04/08 06:07:25;;;;;;;4.73;4.03;;;9.90;99.90;;;;;;5050741;28;20491;-45
2022/04/08 06:09:52;;;;;;;7.57;7.00;;;10.00;99.90;;;;;;5050904;28;20447;-43
2022/04/08 06:12:19;;;;;;;7.03;4.97;;;10.00;99.90;;;;;;5050626;28;20555;-44
2022/04/08 06:14:45;;;;;;;6.10;4.67;;;9.60;99.90;;;;;;5050029;28;20528;-44
2022/04/08 06:17:12;;;;;;;5.40;4.90;;;9.60;99.90;;;;;;5050571;28;20476;-46
2022/04/08 06:19:45;;;;;;;5.57;5.07;;;9.00;99.90;;;;;;5050775;28;20441;-43
2022/04/08 06:22:12;;;;;;;5.40;4.87;;;8.80;99.90;;;;;;5050566;28;20497;-43
2022/04/08 06:24:39;;;;;;;5.50;5.00;;;9.00;99.90;;;;;;5050363;28;20499;-47
2022/04/08 06:27:06;;;;;;;6.27;5.73;;;9.20;99.90;;;;;;5050504;28;20442;-44
2022/04/08 06:29:33;;;;;;;5.13;3.90;;;9.30;99.90;;;;;;5050246;28;20532;-47
2022/04/08 06:32:00;;;;;;;15.80;12.50;;;9.30;99.90;;;;;;5052798;28;20920;-43
2022/04/08 06:34:27;;;;;;;4.80;4.00;;;9.20;99.90;;;;;;5054139;28;20487;-43
2022/04/08 06:36:55;;;;;;;4.03;3.70;;;9.30;99.90;;;;;;5054018;28;20528;-44
2022/04/08 06:39:22;;;;;;;3.13;2.80;;;9.20;99.90;;;;;;5054009;28;20476;-44
2022/04/08 06:41:49;;;;;;;4.70;4.13;;;9.20;99.90;;;;;;5053612;28;20485;-43
2022/04/08 06:44:16;;;;;;;3.33;2.90;;;9.30;99.90;;;;;;5054267;28;20480;-43
2022/04/08 06:46:43;;;;;;;4.13;3.83;;;9.40;99.90;;;;;;5054209;28;21008;-43
2022/04/08 06:49:10;;;;;;;3.63;3.33;;;9.60;99.90;;;;;;5053697;28;20464;-43
2022/04/08 06:51:37;;;;;;;3.83;3.43;;;9.80;99.90;;;;;;5053787;28;20509;-46
2022/04/08 06:54:05;;;;;;;5.20;4.03;;;9.90;99.90;;;;;;5053725;28;20471;-43
2022/04/08 06:56:32;;;;;;;3.73;3.33;;;10.00;99.90;;;;;;5053523;28;20503;-44
2022/04/08 06:58:59;;;;;;;5.40;4.33;;;10.00;99.90;;;;;;5053721;28;20819;-50
2022/04/08 07:01:26;;;;;;;8.23;4.00;;;9.90;99.90;;;;;;5053452;28;20487;-43
2022/04/08 07:03:53;;;;;;;3.30;3.00;;;9.90;99.90;;;;;;5053803;28;20445;-43
2022/04/08 07:06:20;;;;;;;4.63;3.27;;;9.80;99.90;;;;;;5053577;28;20491;-45
2022/04/08 07:08:47;;;;;;;5.47;3.87;;;9.80;99.90;;;;;;5053419;28;20445;-43
2022/04/08 07:11:15;;;;;;;3.60;3.30;;;9.90;99.90;;;;;;5053164;28;20564;-48
2022/04/08 07:13:42;;;;;;;4.53;3.30;;;10.00;99.90;;;;;;5053635;28;20495;-44
2022/04/08 07:16:09;;;;;;;3.70;3.40;;;10.20;99.90;;;;;;5052953;28;20532;-44
2022/04/08 07:18:36;;;;;;;5.43;3.23;;;9.90;99.90;;;;;;5053115;28;20468;-45
2022/04/08 07:21:03;;;;;;;2.97;2.77;;;9.70;99.90;;;;;;5053038;28;20540;-44
2022/04/08 07:23:32;;;;;;;3.90;3.37;;;9.60;99.90;;;;;;5053218;28;20533;-44
2022/04/08 07:25:58;;;;;;;3.53;3.23;;;9.70;99.90;;;;;;5052461;28;20455;-48
2022/04/08 07:28:27;;;;;;;3.30;3.00;;;9.60;99.90;;;;;;5053228;28;20873;-43
2022/04/08 07:30:55;;;;;;;3.90;3.50;;;9.80;99.90;;;;;;5053900;28;20507;-47
2022/04/08 07:33:22;;;;;;;2.73;2.30;;;10.10;99.90;;;;;;5052920;28;20527;-44
2022/04/08 07:35:49;;;;;;;4.03;2.10;;;10.30;99.90;;;;;;5052762;28;20473;-44
2022/04/08 07:38:16;;;;;;;2.00;1.70;;;10.50;99.90;;;;;;5052954;28;20481;-46
2022/04/08 07:40:43;;;;;;;3.93;2.33;;;10.60;99.90;;;;;;5052554;28;20535;-43
2022/04/08 07:43:10;;;;;;;3.63;1.97;;;10.90;99.90;;;;;;5051933;28;20445;-44
2022/04/08 07:45:39;;;;;;;3.47;2.67;;;11.10;99.90;;;;;;5052911;28;20477;-43
2022/04/08 07:48:06;;;;;;;2.33;2.13;;;11.30;99.90;;;;;;5053182;28;20450;-43
2022/04/08 07:50:33;;;;;;;2.50;2.10;;;11.40;99.90;;;;;;5052682;28;20507;-44
2022/04/08 07:53:00;;;;;;;3.60;1.93;;;11.40;99.90;;;;;;5052782;28;20473;-44
2022/04/08 07:55:28;;;;;;;3.03;1.70;;;11.40;99.90;;;;;;5052624;28;20444;-44
2022/04/08 07:57:54;;;;;;;4.53;2.50;;;11.70;99.90;;;;;;5052504;28;20934;-44
2022/04/08 08:00:25;;;;;;;2.40;2.20;;;11.90;99.90;;;;;;5052201;28;20476;-44
2022/04/08 08:02:54;;;;;;;5.10;2.80;;;12.10;99.90;;;;;;5052544;28;20453;-43
2022/04/08 08:05:21;;;;;;;3.37;2.60;;;12.00;99.90;;;;;;5052360;28;20854;-44
2022/04/08 08:07:50;;;;;;;2.60;2.40;;;11.90;99.90;;;;;;5052275;28;20441;-43
2022/04/08 08:10:18;;;;;;;3.10;2.73;;;11.90;99.90;;;;;;5052170;28;20452;-43
2022/04/08 08:12:45;;;;;;;2.50;2.30;;;11.60;99.90;;;;;;5052086;28;20568;-43
2022/04/08 08:15:12;;;;;;;2.67;2.37;;;11.70;99.90;;;;;;5051879;28;20491;-44
2022/04/08 08:17:40;;;;;;;4.17;2.90;;;11.80;99.90;;;;;;5051303;28;20506;-45
2022/04/08 08:20:10;;;;;;;2.90;2.60;;;11.80;99.90;;;;;;5051048;28;20966;-44
2022/04/08 08:22:37;;;;;;;2.70;2.50;;;12.10;99.90;;;;;;5052040;28;20525;-44
2022/04/08 08:25:06;;;;;;;2.60;2.40;;;12.30;99.90;;;;;;5051581;28;20473;-45
2022/04/08 08:27:38;;;;;;;2.83;2.33;;;12.50;99.90;;;;;;5050566;28;20942;-47
2022/04/08 08:30:08;;;;;;;2.90;2.40;;;12.80;99.90;;;;;;5051429;28;20949;-46
2022/04/08 08:32:35;;;;;;;2.43;2.20;;;12.70;99.90;;;;;;5051559;28;20499;-43
2022/04/08 08:35:01;;;;;;;2.60;2.17;;;13.00;99.90;;;;;;5052091;28;20930;-43
2022/04/08 08:37:30;;;;;;;2.13;1.80;;;13.10;99.90;;;;;;5051598;28;20487;-43
2022/04/08 08:39:57;;;;;;;1.70;1.60;;;13.00;99.90;;;;;;5051279;28;20537;-44
2022/04/08 08:42:25;;;;;;;2.00;1.80;;;13.10;99.90;;;;;;5052017;28;20532;-45
2022/04/08 08:44:52;;;;;;;1.80;1.60;;;13.20;99.90;;;;;;5051921;28;20434;-45
2022/04/08 08:47:19;;;;;;;1.80;1.53;;;13.00;99.90;;;;;;5051687;28;20442;-43
2022/04/08 08:49:50;;;;;;;1.57;1.47;;;13.10;99.90;;;;;;5051166;28;20947;-44
2022/04/08 08:52:19;;;;;;;2.43;1.27;;;13.20;99.90;;;;;;5051287;28;21011;-44
2022/04/08 08:54:48;;;;;;;1.97;1.77;;;13.10;99.90;;;;;;5051506;28;20825;-46
2022/04/08 08:57:16;;;;;;;2.33;1.70;;;13.20;99.90;;;;;;5051434;28;20445;-43
2022/04/08 08:59:44;;;;;;;2.03;1.83;;;13.40;99.90;;;;;;5048706;28;20434;-44
2022/04/08 09:02:12;;;;;;;1.93;1.57;;;13.40;99.90;;;;;;5049039;28;20461;-47
2022/04/08 09:04:43;;;;;;;2.00;1.33;;;13.40;99.90;;;;;;5049545;28;20669;-44
2022/04/08 09:07:21;;;;;;;3.03;1.53;;;13.60;99.90;;;;;;5048662;28;20507;-44
2022/04/08 09:09:52;;;;;;;1.87;1.50;;;13.70;99.90;;;;;;5050313;28;20536;-44
2022/04/08 09:12:19;;;;;;;1.73;1.63;;;13.60;99.90;;;;;;5050101;28;20473;-44
2022/04/08 09:14:49;;;;;;;2.40;1.50;;;13.50;99.90;;;;;;5051177;28;20499;-44
2022/04/08 09:17:17;;;;;;;2.13;1.63;;;13.70;99.90;;;;;;5046212;28;20441;-44
2022/04/08 09:19:47;;;;;;;2.57;2.30;;;13.60;99.90;;;;;;5050419;28;20808;-44
2022/04/08 09:22:14;;;;;;;1.70;1.57;;;13.80;99.90;;;;;;5050952;28;20544;-45
2022/04/08 09:24:41;;;;;;;2.33;1.53;;;14.00;99.90;;;;;;5050051;28;20491;-44
2022/04/08 09:27:10;;;;;;;2.70;1.60;;;14.40;99.90;;;;;;5050042;28;20437;-46
2022/04/08 09:29:38;;;;;;;1.53;1.40;;;14.70;99.90;;;;;;5050286;28;20437;-44
2022/04/08 09:32:10;;;;;;;2.20;1.47;;;15.10;99.90;;;;;;5050360;28;20510;-44
2022/04/08 09:34:38;;;;;;;1.40;1.00;;;14.90;99.90;;;;;;5051238;28;20811;-45
2022/04/08 09:37:11;;;;;;;4.83;3.10;;;15.20;99.90;;;;;;5050907;28;20469;-48
2022/04/08 09:39:38;;;;;;;1.40;1.07;;;15.00;99.90;;;;;;5050838;28;20443;-45
2022/04/08 09:42:08;;;;;;;1.10;0.93;;;14.60;99.90;;;;;;5049567;28;20492;-47
2022/04/08 09:44:41;;;;;;;1.67;1.33;;;14.20;99.90;;;;;;5049950;28;20795;-48
2022/04/08 09:47:08;;;;;;;1.93;1.20;;;14.20;99.90;;;;;;5050143;28;21006;-44
2022/04/08 09:49:36;;;;;;;1.37;1.13;;;14.30;99.90;;;;;;5050398;28;20464;-43
2022/04/08 09:52:06;;;;;;;1.50;1.03;;;14.10;99.90;;;;;;5049580;28;20572;-43
2022/04/08 09:54:35;;;;;;;1.10;1.00;;;14.30;99.90;;;;;;5050604;28;20567;-45
2022/04/08 09:57:03;;;;;;;1.47;1.17;;;14.20;99.90;;;;;;5050643;28;20445;-47
2022/04/08 09:59:31;;;;;;;1.60;1.10;;;14.10;99.90;;;;;;5049866;28;20480;-44
2022/04/08 10:01:59;;;;;;;1.60;1.27;;;14.20;99.90;;;;;;5049377;28;20465;-48
2022/04/08 10:04:27;;;;;;;3.97;1.60;;;14.10;99.90;;;;;;5050188;28;20453;-43
2022/04/08 10:06:55;;;;;;;2.73;1.47;;;14.00;99.90;;;;;;5052559;28;20441;-44
2022/04/08 10:09:25;;;;;;;1.30;1.20;;;13.90;99.90;;;;;;5053728;28;20950;-43
2022/04/08 10:11:59;;;;;;;1.40;1.10;;;13.90;99.90;;;;;;5053716;28;20465;-43
2022/04/08 10:14:42;;;;;;;1.53;1.07;;;14.00;99.90;;;;;;5054587;28;20887;-44
2022/04/08 10:17:10;;;;;;;2.37;1.20;;;14.00;99.90;;;;;;5054498;28;20473;-48
2022/04/08 10:19:37;;;;;;;1.60;1.50;;;14.10;99.90;;;;;;5054427;28;20930;-45
2022/04/08 10:22:15;;;;;;;1.23;1.10;;;14.10;99.90;;;;;;5053995;28;20461;-47
2022/04/08 10:24:54;;;;;;;1.90;1.13;;;14.10;99.90;;;;;;5054538;28;20467;-44
2022/04/08 10:27:30;;;;;;;1.40;1.30;;;14.20;99.90;;;;;;5054331;28;20983;-43
2022/04/08 10:29:59;;;;;;;1.80;1.10;;;14.10;99.90;;;;;;5054279;28;20447;-43
2022/04/08 10:32:37;;;;;;;1.33;1.20;;;14.00;99.90;;;;;;5053931;28;20485;-44
2022/04/08 10:35:14;;;;;;;1.47;1.33;;;13.90;99.90;;;;;;5054072;28;20798;-43
2022/04/08 10:37:43;;;;;;;2.10;1.23;;;14.00;99.90;;;;;;5054136;28;20459;-43
2022/04/08 10:40:11;;;;;;;1.70;1.60;;;14.00;99.90;;;;;;5054173;28;20445;-44
2022/04/08 10:42:38;;;;;;;1.67;1.57;;;13.90;99.90;;;;;;5054002;28;20491;-44
2022/04/08 10:45:14;;;;;;;3.17;1.73;;;13.90;99.90;;;;;;5054080;28;20482;-46
2022/04/08 10:47:51;;;;;;;2.17;1.30;;;13.90;99.90;;;;;;5053975;28;20444;-43
2022/04/08 10:50:26;;;;;;;1.70;1.60;;;13.90;99.90;;;;;;5053651;28;20498;-45
2022/04/08 10:53:05;;;;;;;1.83;1.73;;;13.80;99.90;;;;;;5053862;28;20498;-43
2022/04/08 10:55:32;;;;;;;2.53;1.60;;;13.80;99.90;;;;;;5053792;28;20445;-43
2022/04/08 10:58:01;;;;;;;2.10;1.90;;;13.80;99.90;;;;;;5053750;28;20446;-44
2022/04/08 11:00:40;;;;;;;2.07;1.40;;;13.80;99.90;;;;;;5053675;28;20962;-44
2022/04/08 11:03:09;;;;;;;2.30;1.50;;;13.80;99.90;;;;;;5053624;28;20864;-44
2022/04/08 11:05:38;;;;;;;1.90;1.50;;;13.70;99.90;;;;;;5053602;28;20532;-44
2022/04/08 11:08:07;;;;;;;2.17;1.37;;;13.80;99.90;;;;;;5053573;28;20442;-44
2022/04/08 11:10:34;;;;;;;1.57;1.40;;;13.90;99.90;;;;;;5052860;28;20457;-44
2022/04/08 11:13:01;;;;;;;2.53;1.70;;;14.00;99.90;;;;;;5053639;28;20473;-43
2022/04/08 11:15:30;;;;;;;2.80;2.43;;;13.90;99.90;;;;;;5053714;28;20499;-45
2022/04/08 11:18:00;;;;;;;2.40;2.20;;;14.00;99.90;;;;;;5053212;28;20452;-45
2022/04/08 11:20:28;;;;;;;3.10;2.60;;;14.00;99.90;;;;;;5052676;28;20468;-48
2022/04/08 11:22:56;;;;;;;2.53;2.33;;;14.10;99.90;;;;;;5053322;28;20444;-44
2022/04/08 11:25:25;;;;;;;2.03;1.30;;;14.20;99.90;;;;;;5053080;28;20476;-44
2022/04/08 11:27:59;;;;;;;2.10;1.73;;;14.20;99.90;;;;;;5052565;28;20998;-43
2022/04/08 11:30:26;;;;;;;2.43;2.00;;;14.20;99.90;;;;;;5052816;28;20473;-43
2022/04/08 11:32:54;;;;;;;2.10;1.80;;;14.30;99.90;;;;;;5052918;28;20504;-44
2022/04/08 11:35:21;;;;;;;2.23;1.63;;;14.30;99.90;;;;;;5052851;28;21017;-43
2022/04/08 11:37:49;;;;;;;1.80;1.70;;;14.30;99.90;;;;;;5053268;28;20905;-44
2022/04/08 11:40:17;;;;;;;2.87;1.73;;;14.30;99.90;;;;;;5052780;28;20449;-44
2022/04/08 11:42:45;;;;;;;1.70;1.40;;;14.30;99.90;;;;;;5052957;28;20437;-43
2022/04/08 11:45:12;;;;;;;2.77;1.57;;;14.50;99.90;;;;;;5053034;28;20441;-44
2022/04/08 11:47:46;;;;;;;1.40;1.27;;;14.70;99.90;;;;;;5053073;28;20473;-45
2022/04/08 11:50:22;;;;;;;2.03;1.67;;;15.00;99.90;;;;;;5052620;28;20477;-48
2022/04/08 11:52:53;;;;;;;1.43;1.33;;;15.20;99.90;;;;;;5052949;28;20512;-47
2022/04/08 11:55:25;;;;;;;3.00;1.63;;;15.20;99.90;;;;;;5052614;28;20441;-44
2022/04/08 11:57:52;;;;;;;5.27;4.57;;;15.00;99.90;;;;;;5052316;28;21161;-44
2022/04/08 12:00:25;;;;;;;1.77;1.47;;;15.00;99.90;;;;;;5052220;28;20885;-44
2022/04/08 12:02:52;;;;;;;2.30;2.03;;;14.80;99.90;;;;;;5052436;28;20433;-45
2022/04/08 12:05:24;;;;;;;3.20;1.97;;;14.70;99.90;;;;;;5052666;28;20459;-44
2022/04/08 12:07:53;;;;;;;3.37;2.40;;;14.80;99.90;;;;;;5052318;28;20456;-44
2022/04/08 12:10:22;;;;;;;2.43;2.23;;;15.00;99.90;;;;;;5052010;28;20441;-44
2022/04/08 12:12:49;;;;;;;2.43;1.90;;;14.90;99.90;;;;;;5052343;28;20465;-45
2022/04/08 12:15:20;;;;;;;2.10;1.90;;;14.90;99.90;;;;;;5052399;28;20518;-44
2022/04/08 12:17:47;;;;;;;2.47;2.20;;;14.90;99.90;;;;;;5052388;28;20609;-43
2022/04/08 12:20:15;;;;;;;2.03;1.83;;;15.00;99.90;;;;;;5051552;28;20453;-45
2022/04/08 12:22:46;;;;;;;2.23;1.80;;;15.00;99.90;;;;;;5052126;28;20477;-44
2022/04/08 12:25:14;;;;;;;2.27;2.07;;;15.00;99.90;;;;;;5051822;28;20445;-44
2022/04/08 12:27:42;;;;;;;2.00;1.80;;;15.00;99.90;;;;;;5051870;28;20963;-44
2022/04/08 12:30:09;;;;;;;2.27;2.07;;;14.80;99.90;;;;;;5051225;28;20969;-44
2022/04/08 12:32:40;;;;;;;1.80;1.70;;;15.00;99.90;;;;;;5051791;28;20498;-45
2022/04/08 12:35:10;;;;;;;1.97;1.77;;;15.10;99.90;;;;;;5051862;28;20503;-44
2022/04/08 12:37:37;;;;;;;2.50;1.80;;;15.30;99.90;;;;;;5051943;28;20957;-44
2022/04/08 12:40:07;;;;;;;3.50;2.40;;;15.30;99.90;;;;;;5051402;28;20495;-44
2022/04/08 12:42:35;;;;;;;2.63;2.00;;;15.30;99.90;;;;;;5052250;28;20493;-44
2022/04/08 12:45:02;;;;;;;2.07;1.70;;;15.40;99.90;;;;;;5051761;28;20907;-44
2022/04/08 12:47:29;;;;;;;1.80;1.60;;;15.40;99.90;;;;;;5051851;28;20524;-44
2022/04/08 12:49:56;;;;;;;2.50;2.03;;;15.40;99.90;;;;;;5051554;28;20977;-44
2022/04/08 12:52:24;;;;;;;2.10;1.90;;;15.40;99.90;;;;;;5051560;28;20500;-45
2022/04/08 12:54:50;;;;;;;2.10;1.90;;;15.30;99.90;;;;;;5051136;28;20477;-44
2022/04/08 12:57:20;;;;;;;2.37;1.60;;;15.20;99.90;;;;;;5051596;28;20528;-47